Yuba County Airport Marysville US
ICAO: KMYV
IATA: MYV
Category: Medium
Scheduled Services: No

Elevation: 64 ft
TransAlt. 18000 ft.

Airport Communications:
NORCAL APP/DEP:125.4
ASOS:118.475
RANCHO RDO:122.6
CTAF/UNICOM:123.05

KMYV Zoom In..

Runways:

(A) RW 05 length 3281 ft width 60 ft
---- / hdg 51

(B) RW 14 length 6006 ft width 150 ft
ILS 110.50 / hdg 141

(C) RW 23 length 3281 ft width 60 ft
---- / hdg 231

(D) RW 32 length 6006 ft width 150 ft
---- / hdg 321

Location; KMYV
Day. 07 / Time. 18.53 Zulu
* Altimeter: 30.11
* Temperature: 16° c. 60.8°f.
* Wind from: VRB° Speed 03 kn.
Dewpoint: 08° c.
Visibility: 10 Statute Miles.
Clouds: Few 2600 ft.

KMYV 071853Z AUTO VRB03KT 10SM FEW026 16/08 A3011 RMK AO2 SLP199 T01560083


Wind From VRB°
Speed 03 kn.

 
 
jpsmedia worldairports.se 2020   terms of use